Time;durP1;ratioP1;P1;durP2;ratioP2;P2;SDS_P1;SDS_P2;PMS_P1;PMS_P2;Temp;Humidity;BMP_temperature;BMP_pressure;BME280_temperature;BME280_humidity;BME280_pressure;Samples;Min_cycle;Max_cycle;Signal;HPM_P1;HPM_P2
2024/01/02 00:01:52;;;;;;;3.10;1.97;;;9.90;99.90;;;;;;5012201;28;20467;-68
2024/01/02 00:04:17;;;;;;;6.30;1.77;;;9.80;99.90;;;;;;5015051;28;20197;-68
2024/01/02 00:06:43;;;;;;;2.83;1.57;;;9.90;99.90;;;;;;5015534;28;20177;-69
2024/01/02 00:09:08;;;;;;;4.23;1.87;;;9.90;99.90;;;;;;5011832;28;20192;-68
2024/01/02 00:11:34;;;;;;;5.27;2.10;;;9.90;99.90;;;;;;5018040;28;20184;-68
2024/01/02 00:13:59;;;;;;;5.03;1.90;;;9.80;99.90;;;;;;5012344;28;20205;-68
2024/01/02 00:16:25;;;;;;;5.80;1.97;;;9.90;99.90;;;;;;5014191;28;20219;-68
2024/01/02 00:18:50;;;;;;;4.80;1.60;;;9.90;99.90;;;;;;5015920;28;20676;-68
2024/01/02 00:21:16;;;;;;;4.03;1.47;;;9.90;99.90;;;;;;5010506;28;20186;-68
2024/01/02 00:23:42;;;;;;;2.70;1.33;;;9.90;99.90;;;;;;5012790;28;20359;-68
2024/01/02 00:26:07;;;;;;;4.50;1.60;;;9.90;99.90;;;;;;5008855;28;20189;-68
2024/01/02 00:28:33;;;;;;;3.07;1.70;;;10.00;99.90;;;;;;5017861;28;20184;-68
2024/01/02 00:30:58;;;;;;;3.07;1.43;;;10.00;99.90;;;;;;5013164;28;21117;-68
2024/01/02 00:33:24;;;;;;;3.20;1.63;;;10.00;99.90;;;;;;5013902;28;20216;-68
2024/01/02 00:35:50;;;;;;;3.20;1.63;;;10.10;99.90;;;;;;5014476;28;20173;-68
2024/01/02 00:38:15;;;;;;;4.07;1.47;;;10.00;99.90;;;;;;5007928;28;20181;-68
2024/01/02 00:40:41;;;;;;;4.53;1.90;;;10.10;99.90;;;;;;5015156;28;20259;-69
2024/01/02 00:43:06;;;;;;;5.90;1.90;;;10.10;99.90;;;;;;5010491;28;20257;-68
2024/01/02 00:45:32;;;;;;;3.70;1.50;;;10.10;99.90;;;;;;5017565;28;20187;-69
2024/01/02 00:47:58;;;;;;;3.00;1.70;;;10.10;99.90;;;;;;5011897;28;20180;-69
2024/01/02 00:50:23;;;;;;;4.17;1.53;;;10.10;99.90;;;;;;5011937;28;20207;-69
2024/01/02 00:52:49;;;;;;;3.60;1.63;;;10.20;99.90;;;;;;5009540;28;20322;-69
2024/01/02 00:55:15;;;;;;;5.27;1.50;;;10.20;99.90;;;;;;5015900;28;20173;-69
2024/01/02 00:57:41;;;;;;;3.70;1.70;;;10.20;99.90;;;;;;5014620;28;20427;-69
2024/01/02 01:00:07;;;;;;;3.00;1.63;;;10.20;99.90;;;;;;5015174;28;20230;-69
2024/01/02 01:02:32;;;;;;;5.80;1.70;;;10.20;99.90;;;;;;5012015;28;20502;-69
2024/01/02 01:04:58;;;;;;;3.63;1.40;;;10.20;99.90;;;;;;5017689;28;20525;-69
2024/01/02 01:07:25;;;;;;;3.97;1.40;;;10.30;99.90;;;;;;5017956;28;20189;-69
2024/01/02 01:09:51;;;;;;;3.50;1.47;;;10.40;99.90;;;;;;5020738;28;20181;-69
2024/01/02 01:12:16;;;;;;;2.67;1.40;;;10.30;99.90;;;;;;5010856;28;21016;-69
2024/01/02 01:14:42;;;;;;;2.37;1.40;;;10.40;99.90;;;;;;5017021;28;20223;-68
2024/01/02 01:17:09;;;;;;;2.53;1.23;;;10.40;99.90;;;;;;5014340;28;20611;-68
2024/01/02 01:19:35;;;;;;;2.37;1.30;;;10.30;99.90;;;;;;5016650;28;20176;-68
2024/01/02 01:22:00;;;;;;;4.03;1.60;;;10.40;99.90;;;;;;5019582;28;20415;-68
2024/01/02 01:24:26;;;;;;;2.37;1.20;;;10.30;99.90;;;;;;5013174;28;20283;-69
2024/01/02 01:26:52;;;;;;;3.33;1.53;;;10.40;99.90;;;;;;5014391;28;20189;-69
2024/01/02 01:29:23;;;;;;;2.50;1.50;;;10.40;99.90;;;;;;5014172;28;20203;-68
2024/01/02 01:31:49;;;;;;;6.30;2.03;;;10.40;99.90;;;;;;5017004;28;20448;-69
2024/01/02 01:34:15;;;;;;;2.37;1.37;;;10.40;99.90;;;;;;5014645;28;20954;-69
2024/01/02 01:36:41;;;;;;;3.20;1.40;;;10.40;99.90;;;;;;5010299;28;20260;-69
2024/01/02 01:39:07;;;;;;;2.60;1.27;;;10.40;99.90;;;;;;5008959;28;20432;-70
2024/01/02 01:41:32;;;;;;;2.53;1.20;;;10.30;99.90;;;;;;5016547;28;20948;-70
2024/01/02 01:43:58;;;;;;;5.90;1.40;;;10.30;99.90;;;;;;5012960;28;20299;-69
2024/01/02 01:46:28;;;;;;;2.97;1.30;;;10.30;99.90;;;;;;5013920;28;20189;-69
2024/01/02 01:48:54;;;;;;;3.50;1.40;;;10.30;99.90;;;;;;5014416;28;20192;-69
2024/01/02 01:51:22;;;;;;;2.37;1.30;;;10.30;99.90;;;;;;5013964;28;20430;-70
2024/01/02 01:53:48;;;;;;;2.97;1.57;;;10.30;99.90;;;;;;5013237;28;20215;-69
2024/01/02 01:56:14;;;;;;;2.83;1.57;;;10.30;99.90;;;;;;5002993;28;20805;-69
2024/01/02 01:58:40;;;;;;;3.70;1.43;;;10.30;99.90;;;;;;5013800;28;20523;-69
2024/01/02 02:01:05;;;;;;;2.73;1.23;;;10.20;99.90;;;;;;5015322;28;20511;-69
2024/01/02 02:03:33;;;;;;;3.73;1.40;;;10.20;99.90;;;;;;5015365;28;20216;-70
2024/01/02 02:05:59;;;;;;;3.97;1.30;;;10.10;99.90;;;;;;5011728;28;20678;-69
2024/01/02 02:08:24;;;;;;;2.00;1.20;;;10.10;99.90;;;;;;5020472;28;20438;-69
2024/01/02 02:10:51;;;;;;;2.93;1.60;;;10.10;99.90;;;;;;5017799;28;20226;-69
2024/01/02 02:13:16;;;;;;;2.07;1.30;;;10.10;99.90;;;;;;5014430;28;20291;-69
2024/01/02 02:15:42;;;;;;;2.40;1.50;;;10.10;99.90;;;;;;5012038;28;20523;-68
2024/01/02 02:18:08;;;;;;;2.00;1.20;;;10.10;99.90;;;;;;5010560;28;20177;-68
2024/01/02 02:20:34;;;;;;;3.80;1.50;;;10.10;99.90;;;;;;5015655;28;20327;-68
2024/01/02 02:23:00;;;;;;;2.00;1.20;;;10.00;99.90;;;;;;5007865;28;20479;-68
2024/01/02 02:25:27;;;;;;;4.60;1.30;;;10.00;99.90;;;;;;5010040;28;20603;-68
2024/01/02 02:27:52;;;;;;;2.83;1.27;;;10.00;99.90;;;;;;5019673;28;20173;-68
2024/01/02 02:30:18;;;;;;;2.73;1.27;;;9.90;99.90;;;;;;5011436;28;20454;-68
2024/01/02 02:32:43;;;;;;;2.93;1.30;;;9.90;99.90;;;;;;5033676;28;20690;-68
2024/01/02 02:35:09;;;;;;;2.67;1.30;;;9.90;99.90;;;;;;5025862;28;20173;-68
2024/01/02 02:37:35;;;;;;;2.30;1.13;;;9.90;99.90;;;;;;5017188;28;20662;-68
2024/01/02 02:40:00;;;;;;;2.53;1.10;;;9.80;99.90;;;;;;5013096;28;20273;-69
2024/01/02 02:42:26;;;;;;;3.20;1.50;;;9.80;99.90;;;;;;5018099;28;20237;-69
2024/01/02 02:44:52;;;;;;;1.90;1.20;;;9.70;99.90;;;;;;5018739;28;22258;-69
2024/01/02 02:47:17;;;;;;;2.63;1.13;;;9.70;99.90;;;;;;5014293;28;20218;-69
2024/01/02 02:49:43;;;;;;;3.90;1.40;;;9.70;99.90;;;;;;5015718;28;20185;-68
2024/01/02 02:52:08;;;;;;;2.43;1.50;;;9.60;99.90;;;;;;5011806;28;20280;-68
2024/01/02 02:54:34;;;;;;;4.03;1.40;;;9.60;99.90;;;;;;5012499;28;20203;-70
2024/01/02 02:57:00;;;;;;;3.23;1.50;;;9.50;99.90;;;;;;5012980;28;20176;-69
2024/01/02 02:59:26;;;;;;;4.73;1.13;;;9.40;99.90;;;;;;5011160;28;20200;-68
2024/01/02 03:01:51;;;;;;;2.53;1.17;;;9.40;99.90;;;;;;5013093;28;20271;-68
2024/01/02 03:04:17;;;;;;;2.40;1.10;;;9.30;99.90;;;;;;5011812;28;20224;-68
2024/01/02 03:06:43;;;;;;;3.27;1.50;;;9.40;99.90;;;;;;5010838;28;20427;-68
2024/01/02 03:09:10;;;;;;;3.03;1.40;;;9.40;99.90;;;;;;5016243;28;20295;-68
2024/01/02 03:11:35;;;;;;;2.63;1.80;;;9.40;99.90;;;;;;5013960;28;20181;-68
2024/01/02 03:14:01;;;;;;;2.10;1.10;;;9.30;99.90;;;;;;5010738;28;21170;-68
2024/01/02 03:16:26;;;;;;;3.60;1.17;;;9.20;99.90;;;;;;5014945;28;20687;-68
2024/01/02 03:18:52;;;;;;;2.40;1.20;;;9.20;99.90;;;;;;5015872;28;20180;-68
2024/01/02 03:21:18;;;;;;;3.40;1.30;;;9.10;99.90;;;;;;5008787;28;20181;-68
2024/01/02 03:23:43;;;;;;;2.43;1.30;;;9.10;99.90;;;;;;5010751;28;20718;-68
2024/01/02 03:26:11;;;;;;;3.30;1.80;;;9.00;99.90;;;;;;5012368;28;20180;-68
2024/01/02 03:28:37;;;;;;;5.40;1.30;;;9.00;99.90;;;;;;5014550;28;20719;-68
2024/01/02 03:31:05;;;;;;;2.93;1.43;;;9.10;99.90;;;;;;5015577;28;20525;-68
2024/01/02 03:33:31;;;;;;;2.33;1.27;;;9.00;99.90;;;;;;5016394;28;20592;-68
2024/01/02 03:35:57;;;;;;;4.00;1.27;;;8.90;99.90;;;;;;5014361;28;20485;-68
2024/01/02 03:38:23;;;;;;;2.77;1.10;;;8.90;99.90;;;;;;5012237;28;20808;-69
2024/01/02 03:40:48;;;;;;;2.20;1.03;;;9.00;99.90;;;;;;5012223;28;20230;-68
2024/01/02 03:43:14;;;;;;;2.40;1.10;;;9.00;99.90;;;;;;5012608;28;20602;-68
2024/01/02 03:45:39;;;;;;;2.30;1.20;;;9.00;99.90;;;;;;5014057;28;20183;-68
2024/01/02 03:48:05;;;;;;;2.33;1.10;;;8.80;99.90;;;;;;5013641;28;20260;-68
2024/01/02 03:50:31;;;;;;;5.13;1.20;;;8.80;99.90;;;;;;5011289;28;20237;-68
2024/01/02 03:52:56;;;;;;;2.97;1.20;;;8.80;99.90;;;;;;5016274;28;20459;-68
2024/01/02 03:55:22;;;;;;;2.40;1.37;;;8.90;99.90;;;;;;5015458;28;20192;-68
2024/01/02 03:57:47;;;;;;;2.90;1.23;;;8.90;99.90;;;;;;5010130;28;20176;-68
2024/01/02 04:00:13;;;;;;;2.50;1.10;;;8.90;99.90;;;;;;5009549;28;20209;-68
2024/01/02 04:02:39;;;;;;;2.00;1.10;;;9.00;99.90;;;;;;5013265;28;20181;-68
2024/01/02 04:05:05;;;;;;;2.23;1.00;;;8.90;99.90;;;;;;5008035;28;20452;-68
2024/01/02 04:07:32;;;;;;;2.00;1.20;;;8.90;99.90;;;;;;5012996;28;20195;-68
2024/01/02 04:09:58;;;;;;;2.73;1.30;;;8.90;99.90;;;;;;5016759;28;20945;-68
2024/01/02 04:12:24;;;;;;;2.93;1.67;;;8.80;99.90;;;;;;5015942;28;20451;-68
2024/01/02 04:14:49;;;;;;;2.60;1.10;;;8.80;99.90;;;;;;5009882;28;20757;-69
2024/01/02 04:17:15;;;;;;;5.30;1.30;;;8.90;99.90;;;;;;5017563;28;20255;-69
2024/01/02 04:19:40;;;;;;;2.13;1.00;;;8.90;99.90;;;;;;5007466;28;20216;-68
2024/01/02 04:22:06;;;;;;;1.90;0.93;;;8.90;99.90;;;;;;5013994;28;20188;-68
2024/01/02 04:24:32;;;;;;;2.20;1.00;;;9.00;99.90;;;;;;5013246;28;20262;-68
2024/01/02 04:26:57;;;;;;;2.60;1.03;;;8.90;99.90;;;;;;5012506;28;20279;-68
2024/01/02 04:29:23;;;;;;;1.97;1.10;;;8.90;99.90;;;;;;5013407;28;20189;-68
2024/01/02 04:31:48;;;;;;;2.00;1.00;;;8.90;99.90;;;;;;5013687;28;20192;-68
2024/01/02 04:34:14;;;;;;;2.20;1.20;;;8.90;99.90;;;;;;5017394;28;20216;-69
2024/01/02 04:36:44;;;;;;;1.93;1.00;;;8.90;99.90;;;;;;5015222;28;20272;-69
2024/01/02 04:39:10;;;;;;;1.90;0.90;;;9.00;99.90;;;;;;5015842;28;20610;-68
2024/01/02 04:41:35;;;;;;;1.90;1.00;;;9.00;99.90;;;;;;5012146;28;20465;-68
2024/01/02 04:44:01;;;;;;;2.00;1.00;;;8.90;99.90;;;;;;5017489;28;20209;-68
2024/01/02 04:46:29;;;;;;;2.40;1.00;;;8.90;99.90;;;;;;5012992;28;20594;-68
2024/01/02 04:48:55;;;;;;;2.77;1.10;;;8.90;99.90;;;;;;5012502;28;20243;-69
2024/01/02 04:51:21;;;;;;;2.70;1.10;;;8.90;99.90;;;;;;5011478;28;20435;-69
2024/01/02 04:53:46;;;;;;;3.03;1.00;;;8.90;99.90;;;;;;5012606;28;20947;-69
2024/01/02 04:56:12;;;;;;;2.10;0.90;;;9.00;99.90;;;;;;5012301;28;20665;-69
2024/01/02 04:58:38;;;;;;;2.10;1.00;;;8.90;99.90;;;;;;5011087;28;20184;-68
2024/01/02 05:01:03;;;;;;;2.47;0.90;;;8.90;99.90;;;;;;5016384;28;20192;-68
2024/01/02 05:03:29;;;;;;;2.00;1.00;;;8.90;99.90;;;;;;5016830;28;20204;-68
2024/01/02 05:05:55;;;;;;;2.10;1.00;;;8.80;99.90;;;;;;5024936;28;20696;-68
2024/01/02 05:08:20;;;;;;;1.87;1.00;;;8.80;99.90;;;;;;5017790;28;20461;-68
2024/01/02 05:10:46;;;;;;;1.90;0.90;;;8.80;99.90;;;;;;5012613;28;20283;-68
2024/01/02 05:13:12;;;;;;;2.13;1.00;;;8.80;99.90;;;;;;5017408;28;20286;-68
2024/01/02 05:15:38;;;;;;;1.80;0.80;;;8.80;99.90;;;;;;5021519;28;20208;-69
2024/01/02 05:18:03;;;;;;;2.20;1.03;;;8.80;99.90;;;;;;5024772;28;20271;-68
2024/01/02 05:20:29;;;;;;;3.40;1.00;;;8.80;99.90;;;;;;5020210;28;20425;-68
2024/01/02 05:22:55;;;;;;;1.80;0.80;;;8.80;99.90;;;;;;5019042;28;20441;-68
2024/01/02 05:25:20;;;;;;;2.27;1.17;;;8.80;99.90;;;;;;5017589;28;20192;-68
2024/01/02 05:27:46;;;;;;;2.20;1.00;;;8.80;99.90;;;;;;5018885;28;20191;-68
2024/01/02 05:30:12;;;;;;;2.10;0.90;;;8.80;99.90;;;;;;5020133;28;20189;-68
2024/01/02 05:32:38;;;;;;;1.90;1.00;;;8.70;99.90;;;;;;5016922;28;20839;-68
2024/01/02 05:35:04;;;;;;;2.10;1.20;;;8.80;99.90;;;;;;5015985;28;20496;-68
2024/01/02 05:37:29;;;;;;;2.10;0.97;;;8.80;99.90;;;;;;5022278;28;20276;-68
2024/01/02 05:39:55;;;;;;;2.27;0.90;;;8.80;99.90;;;;;;5016409;28;20469;-68
2024/01/02 05:42:21;;;;;;;3.57;1.00;;;8.90;99.90;;;;;;5013599;28;20239;-68
2024/01/02 05:44:47;;;;;;;1.80;0.90;;;8.90;99.90;;;;;;5018786;28;20205;-69
2024/01/02 05:47:13;;;;;;;1.80;0.90;;;8.90;99.90;;;;;;5018654;28;20193;-68
2024/01/02 05:49:38;;;;;;;2.40;0.90;;;8.80;99.90;;;;;;5019758;28;20565;-68
2024/01/02 05:52:04;;;;;;;2.07;1.00;;;8.90;99.90;;;;;;5014812;28;20810;-68
2024/01/02 05:54:30;;;;;;;2.30;1.10;;;8.90;99.90;;;;;;5014648;28;20211;-68
2024/01/02 05:56:55;;;;;;;1.73;0.80;;;8.90;99.90;;;;;;5020149;28;20177;-68
2024/01/02 05:59:21;;;;;;;2.53;0.90;;;8.90;99.90;;;;;;5017464;28;20185;-68
2024/01/02 06:01:46;;;;;;;1.70;0.80;;;8.90;99.90;;;;;;5017428;28;20249;-68
2024/01/02 06:04:12;;;;;;;1.80;0.90;;;8.90;99.90;;;;;;5012779;28;20208;-68
2024/01/02 06:06:37;;;;;;;2.00;1.10;;;8.90;99.90;;;;;;5014635;28;20193;-68
2024/01/02 06:09:03;;;;;;;2.20;1.10;;;8.90;99.90;;;;;;5011404;28;20734;-70
2024/01/02 06:11:29;;;;;;;2.30;1.00;;;8.90;99.90;;;;;;5012449;28;20540;-68
2024/01/02 06:13:54;;;;;;;1.90;0.90;;;9.00;99.90;;;;;;5009816;28;20224;-69
2024/01/02 06:16:20;;;;;;;2.60;1.13;;;9.00;99.90;;;;;;5016810;28;20266;-68
2024/01/02 06:18:45;;;;;;;1.77;0.90;;;9.00;99.90;;;;;;5018237;28;20218;-68
2024/01/02 06:21:11;;;;;;;3.40;1.07;;;9.00;99.90;;;;;;5016958;28;20192;-69
2024/01/02 06:23:36;;;;;;;1.80;0.90;;;9.10;99.90;;;;;;5012198;28;20208;-68
2024/01/02 06:26:02;;;;;;;1.73;0.90;;;9.10;99.90;;;;;;5012739;28;20189;-68
2024/01/02 06:28:28;;;;;;;2.90;0.97;;;9.10;99.90;;;;;;5014323;28;20208;-68
2024/01/02 06:30:53;;;;;;;2.30;1.00;;;9.10;99.90;;;;;;5017342;28;20219;-68
2024/01/02 06:33:19;;;;;;;2.37;1.10;;;9.10;99.90;;;;;;5016835;28;20223;-68
2024/01/02 06:35:44;;;;;;;1.97;1.03;;;9.20;99.90;;;;;;5016555;28;20192;-68
2024/01/02 06:38:10;;;;;;;5.40;1.17;;;9.20;99.90;;;;;;5014188;28;20226;-68
2024/01/02 06:40:36;;;;;;;2.00;0.87;;;9.20;99.90;;;;;;5016375;28;20192;-68
2024/01/02 06:43:02;;;;;;;2.10;1.20;;;9.20;99.90;;;;;;5007635;28;20205;-68
2024/01/02 06:45:27;;;;;;;3.17;1.10;;;9.20;99.90;;;;;;5019404;28;20482;-68
2024/01/02 06:47:53;;;;;;;3.70;1.00;;;9.20;99.90;;;;;;5016532;28;20203;-68
2024/01/02 06:50:19;;;;;;;1.80;1.10;;;9.30;99.90;;;;;;5023462;28;20176;-68
2024/01/02 06:52:44;;;;;;;1.80;0.90;;;9.30;99.90;;;;;;5021435;28;20709;-68
2024/01/02 06:55:10;;;;;;;2.00;1.00;;;9.30;99.90;;;;;;5017259;28;20188;-68
2024/01/02 06:57:35;;;;;;;2.00;1.00;;;9.30;99.90;;;;;;5019247;28;20259;-68
2024/01/02 07:00:01;;;;;;;2.87;1.30;;;9.30;99.90;;;;;;5015193;28;20439;-68
2024/01/02 07:02:29;;;;;;;1.90;0.90;;;9.20;99.90;;;;;;5018399;28;20212;-68
2024/01/02 07:04:55;;;;;;;2.47;1.00;;;9.20;99.90;;;;;;5019581;28;20200;-68
2024/01/02 07:07:20;;;;;;;2.30;1.10;;;9.20;99.90;;;;;;5012893;28;20462;-69
2024/01/02 07:09:46;;;;;;;2.00;1.10;;;9.20;99.90;;;;;;5017185;28;20192;-68
2024/01/02 07:12:12;;;;;;;2.00;0.93;;;9.30;99.90;;;;;;5014418;28;20212;-68
2024/01/02 07:14:37;;;;;;;2.03;1.00;;;9.20;99.90;;;;;;5014600;28;20205;-68
2024/01/02 07:17:03;;;;;;;1.90;0.97;;;9.30;99.90;;;;;;5014256;28;20185;-69
2024/01/02 07:19:29;;;;;;;2.30;1.00;;;9.30;99.90;;;;;;5013497;28;20180;-68
2024/01/02 07:21:54;;;;;;;1.80;0.90;;;9.30;99.90;;;;;;5015040;28;20423;-68
2024/01/02 07:24:20;;;;;;;2.00;1.00;;;9.30;99.90;;;;;;5017186;28;20564;-68
2024/01/02 07:26:45;;;;;;;2.10;0.93;;;9.30;99.90;;;;;;5007086;28;20824;-68
2024/01/02 07:29:11;;;;;;;3.10;1.20;;;9.30;99.90;;;;;;5019922;28;20188;-68
2024/01/02 07:31:37;;;;;;;4.00;0.90;;;9.30;99.90;;;;;;5014339;28;20187;-68
2024/01/02 07:34:02;;;;;;;2.87;1.10;;;9.30;99.90;;;;;;5019457;28;20230;-68
2024/01/02 07:36:28;;;;;;;1.90;0.90;;;9.30;99.90;;;;;;5013437;28;20271;-68
2024/01/02 07:38:53;;;;;;;1.87;0.90;;;9.30;99.90;;;;;;5011239;28;20192;-68
2024/01/02 07:41:19;;;;;;;1.80;0.90;;;9.30;99.90;;;;;;5014506;28;20184;-68
2024/01/02 07:43:45;;;;;;;2.00;0.97;;;9.30;99.90;;;;;;5021431;28;20204;-69
2024/01/02 07:46:10;;;;;;;2.60;1.10;;;9.30;99.90;;;;;;5018016;28;20259;-68
2024/01/02 07:48:36;;;;;;;2.13;1.10;;;9.30;99.90;;;;;;5018976;28;20179;-68
2024/01/02 07:51:02;;;;;;;5.40;1.00;;;9.30;99.90;;;;;;5011339;28;20212;-68
2024/01/02 07:53:28;;;;;;;2.00;0.90;;;9.30;99.90;;;;;;5023847;28;20584;-68
2024/01/02 07:55:53;;;;;;;2.20;1.00;;;9.20;99.90;;;;;;5020575;28;20525;-68
2024/01/02 07:58:19;;;;;;;2.30;1.00;;;9.30;99.90;;;;;;5020154;28;20208;-68
2024/01/02 08:00:45;;;;;;;1.80;0.90;;;9.30;99.90;;;;;;5023105;28;20643;-68
2024/01/02 08:03:10;;;;;;;2.43;1.10;;;9.30;99.90;;;;;;5013077;28;20211;-68
2024/01/02 08:05:36;;;;;;;5.83;1.00;;;9.20;99.90;;;;;;5013078;28;20796;-70
2024/01/02 08:08:02;;;;;;;2.60;1.00;;;9.30;99.90;;;;;;5018249;28;21722;-69
2024/01/02 08:10:28;;;;;;;5.00;1.00;;;9.30;99.90;;;;;;5010336;28;20200;-68
2024/01/02 08:12:53;;;;;;;2.53;1.30;;;9.20;99.90;;;;;;5023922;28;20455;-69
2024/01/02 08:15:19;;;;;;;2.03;1.20;;;9.20;99.90;;;;;;5018247;28;20192;-68
2024/01/02 08:17:44;;;;;;;1.60;0.80;;;9.20;99.90;;;;;;5020150;28;20185;-69
2024/01/02 08:20:10;;;;;;;1.70;0.90;;;9.20;99.90;;;;;;5020458;28;20278;-68
2024/01/02 08:22:36;;;;;;;1.90;1.00;;;9.20;99.90;;;;;;5019272;28;20193;-69
2024/01/02 08:25:03;;;;;;;1.80;0.90;;;9.30;99.90;;;;;;5017376;28;20442;-69
2024/01/02 08:27:29;;;;;;;3.97;1.00;;;9.20;99.90;;;;;;5021116;28;20193;-70
2024/01/02 08:29:54;;;;;;;1.97;1.03;;;9.20;99.90;;;;;;5013213;28;20633;-73
2024/01/02 08:32:21;;;;;;;4.90;1.00;;;9.20;99.90;;;;;;5013347;28;20208;-70
2024/01/02 08:34:47;;;;;;;2.33;1.20;;;9.20;99.90;;;;;;5018275;28;20201;-69
2024/01/02 08:37:13;;;;;;;3.00;1.10;;;9.20;99.90;;;;;;5015609;28;20852;-69
2024/01/02 08:39:38;;;;;;;1.90;1.00;;;9.20;99.90;;;;;;5018208;28;20570;-69
2024/01/02 08:42:04;;;;;;;1.90;1.00;;;9.20;99.90;;;;;;5012733;28;20180;-69
2024/01/02 08:44:30;;;;;;;3.50;1.00;;;9.20;99.90;;;;;;5018589;28;20216;-69
2024/01/02 08:46:56;;;;;;;1.80;1.00;;;9.20;99.90;;;;;;5018129;28;20931;-69
2024/01/02 08:49:21;;;;;;;2.10;1.00;;;9.30;99.90;;;;;;5010070;28;20181;-69
2024/01/02 08:51:47;;;;;;;2.00;1.00;;;9.30;99.90;;;;;;5016162;28;20185;-69
2024/01/02 08:54:12;;;;;;;1.90;1.00;;;9.40;99.90;;;;;;5017342;28;20218;-68
2024/01/02 08:56:38;;;;;;;2.37;1.07;;;9.40;99.90;;;;;;5013081;28;20181;-69
2024/01/02 08:59:03;;;;;;;1.87;0.80;;;9.50;99.90;;;;;;5015723;28;20893;-68
2024/01/02 09:01:29;;;;;;;2.20;1.13;;;9.50;99.90;;;;;;5017274;28;20704;-68
2024/01/02 09:03:55;;;;;;;2.00;1.03;;;9.50;99.90;;;;;;5016174;28;20291;-69
2024/01/02 09:06:20;;;;;;;1.90;1.00;;;9.50;99.90;;;;;;5014213;28;20204;-69
2024/01/02 09:08:46;;;;;;;1.80;0.90;;;9.60;99.90;;;;;;5015296;28;20188;-69
2024/01/02 09:11:12;;;;;;;3.20;1.10;;;9.60;99.90;;;;;;5010543;28;20264;-68
2024/01/02 09:13:39;;;;;;;2.70;1.20;;;9.50;99.90;;;;;;5015262;28;20916;-69
2024/01/02 09:16:06;;;;;;;3.20;1.13;;;9.50;99.90;;;;;;5011361;28;20435;-69
2024/01/02 09:18:31;;;;;;;1.80;1.00;;;9.60;99.90;;;;;;5016997;28;20530;-69
2024/01/02 09:20:57;;;;;;;1.93;1.07;;;9.60;99.90;;;;;;5010608;28;21061;-68
2024/01/02 09:23:23;;;;;;;2.70;1.60;;;9.60;99.90;;;;;;5012296;28;20208;-70
2024/01/02 09:25:50;;;;;;;1.93;1.00;;;9.60;99.90;;;;;;5011840;28;20188;-68
2024/01/02 09:28:17;;;;;;;1.87;0.90;;;9.60;99.90;;;;;;5018797;28;21467;-69
2024/01/02 09:30:43;;;;;;;1.80;0.90;;;9.60;99.90;;;;;;5011660;28;20787;-69
2024/01/02 09:33:10;;;;;;;2.47;1.00;;;9.70;99.90;;;;;;5012353;28;21347;-69
2024/01/02 09:35:36;;;;;;;1.90;1.00;;;9.70;99.90;;;;;;5015183;28;20446;-69
2024/01/02 09:38:06;;;;;;;1.70;0.80;;;9.60;99.90;;;;;;5009029;28;21127;-69
2024/01/02 09:40:46;;;;;;;2.03;1.00;;;9.70;99.90;;;;;;5012423;28;20455;-69
2024/01/02 09:43:26;;;;;;;2.47;1.00;;;9.70;99.90;;;;;;5014087;28;20968;-69
2024/01/02 09:46:10;;;;;;;2.47;1.20;;;9.70;99.90;;;;;;5010668;28;20439;-70
2024/01/02 09:48:54;;;;;;;2.20;1.03;;;9.80;99.90;;;;;;5014337;28;21941;-69
2024/01/02 09:51:37;;;;;;;2.10;1.20;;;9.80;99.90;;;;;;5013308;28;20431;-69
2024/01/02 09:54:25;;;;;;;2.00;1.23;;;9.80;99.90;;;;;;5015302;28;20926;-70
2024/01/02 09:56:54;;;;;;;1.87;0.93;;;9.80;99.90;;;;;;5013637;28;20431;-69
2024/01/02 09:59:29;;;;;;;2.43;1.07;;;9.80;99.90;;;;;;5022640;28;20408;-69
2024/01/02 10:02:18;;;;;;;2.00;1.00;;;9.80;99.90;;;;;;5014655;28;20461;-68
2024/01/02 10:05:08;;;;;;;2.27;1.17;;;9.80;99.90;;;;;;5011873;28;20519;-70
2024/01/02 10:07:58;;;;;;;3.10;1.43;;;9.90;99.90;;;;;;5005822;28;20459;-70
2024/01/02 10:10:33;;;;;;;2.53;1.20;;;9.80;99.90;;;;;;5015073;28;20474;-69
2024/01/02 10:13:10;;;;;;;2.30;1.07;;;9.80;99.90;;;;;;5018841;28;20494;-69
2024/01/02 10:15:54;;;;;;;1.90;1.00;;;9.90;99.90;;;;;;5019991;28;21168;-69
2024/01/02 10:18:52;;;;;;;2.00;1.20;;;9.90;99.90;;;;;;5017938;28;20454;-68
2024/01/02 10:21:36;;;;;;;2.10;1.20;;;9.80;99.90;;;;;;5012958;28;20420;-68
2024/01/02 10:24:22;;;;;;;1.90;1.07;;;9.90;99.90;;;;;;5018042;28;20530;-68
2024/01/02 10:27:04;;;;;;;2.93;1.10;;;9.90;99.90;;;;;;5018240;28;20501;-69
2024/01/02 10:29:57;;;;;;;2.20;1.10;;;9.90;99.90;;;;;;5017094;28;20507;-69
2024/01/02 10:32:50;;;;;;;5.20;1.10;;;9.90;99.90;;;;;;5011257;28;20482;-69
2024/01/02 10:35:23;;;;;;;2.10;1.20;;;9.90;99.90;;;;;;5012062;28;20490;-69
2024/01/02 10:38:10;;;;;;;2.30;1.30;;;10.00;99.90;;;;;;5015263;28;20802;-70
2024/01/02 10:40:42;;;;;;;1.90;1.00;;;10.00;99.90;;;;;;5009298;28;20494;-69
2024/01/02 10:43:19;;;;;;;2.00;1.10;;;10.10;99.90;;;;;;5021883;28;20435;-69
2024/01/02 10:46:10;;;;;;;2.40;1.23;;;10.10;99.90;;;;;;5018465;28;20474;-69
2024/01/02 10:48:44;;;;;;;2.27;1.20;;;10.10;99.90;;;;;;5013483;28;20530;-69
2024/01/02 10:51:21;;;;;;;2.17;1.07;;;10.10;99.90;;;;;;5011605;28;20664;-69
2024/01/02 10:54:06;;;;;;;2.00;1.00;;;10.10;99.90;;;;;;5015165;28;21202;-70
2024/01/02 10:56:48;;;;;;;3.83;1.30;;;10.10;99.90;;;;;;5011461;28;20413;-69
2024/01/02 10:59:29;;;;;;;2.20;1.20;;;10.20;99.90;;;;;;5017790;28;20423;-70
2024/01/02 11:02:24;;;;;;;2.30;1.10;;;10.20;99.90;;;;;;5015713;28;20413;-69
2024/01/02 11:04:59;;;;;;;2.20;1.00;;;10.20;99.90;;;;;;5006940;28;20460;-70
2024/01/02 11:07:33;;;;;;;3.07;1.30;;;10.30;99.90;;;;;;5013381;28;20443;-70
2024/01/02 11:10:25;;;;;;;2.40;1.30;;;10.30;99.90;;;;;;5015687;28;20971;-70
2024/01/02 11:12:54;;;;;;;2.00;1.10;;;10.40;99.90;;;;;;5016417;28;20490;-69
2024/01/02 11:15:24;;;;;;;2.67;1.10;;;10.40;99.90;;;;;;5011036;28;20551;-69
2024/01/02 11:17:52;;;;;;;3.30;1.10;;;10.40;99.90;;;;;;5012151;28;20490;-70
2024/01/02 11:20:20;;;;;;;2.10;1.00;;;10.50;99.90;;;;;;5012430;28;20800;-70
2024/01/02 11:23:17;;;;;;;2.00;1.00;;;10.50;99.90;;;;;;5019701;28;20447;-69
2024/01/02 11:26:11;;;;;;;2.47;1.20;;;10.50;99.90;;;;;;5015082;28;20543;-69
2024/01/02 11:28:41;;;;;;;2.47;1.20;;;10.60;99.90;;;;;;5019036;28;20438;-69
2024/01/02 11:31:09;;;;;;;1.93;1.20;;;10.60;99.90;;;;;;5019800;28;21231;-69
2024/01/02 11:34:05;;;;;;;2.67;1.40;;;10.60;99.90;;;;;;5019407;28;20470;-69
2024/01/02 11:36:40;;;;;;;4.63;1.33;;;10.60;99.90;;;;;;5016827;28;20467;-69
2024/01/02 11:39:12;;;;;;;3.20;1.20;;;10.60;99.90;;;;;;5006958;28;20450;-68
2024/01/02 11:41:53;;;;;;;1.90;1.10;;;10.60;99.90;;;;;;5014148;28;20899;-68
2024/01/02 11:44:25;;;;;;;2.00;0.90;;;10.70;99.90;;;;;;5007753;28;20459;-69
2024/01/02 11:47:01;;;;;;;2.30;1.10;;;10.70;99.90;;;;;;5011640;28;20459;-69
2024/01/02 11:49:28;;;;;;;2.67;1.10;;;10.70;99.90;;;;;;5012612;28;20474;-69
2024/01/02 11:52:07;;;;;;;2.10;1.00;;;10.70;99.90;;;;;;5018248;28;20423;-69
2024/01/02 11:54:57;;;;;;;2.00;1.00;;;10.70;99.90;;;;;;5010084;28;20821;-69
2024/01/02 11:57:29;;;;;;;2.27;1.20;;;10.60;99.90;;;;;;5011856;28;20428;-69
2024/01/02 12:00:03;;;;;;;2.20;1.13;;;10.50;99.90;;;;;;5016314;28;20905;-68
2024/01/02 12:03:06;;;;;;;3.03;1.10;;;10.50;99.90;;;;;;5022074;28;20430;-68
2024/01/02 12:05:39;;;;;;;1.90;1.00;;;10.50;99.90;;;;;;5012853;28;20431;-68
2024/01/02 12:08:13;;;;;;;2.17;1.10;;;10.50;99.90;;;;;;5010463;28;20478;-68
2024/01/02 12:10:47;;;;;;;2.03;1.00;;;10.60;99.90;;;;;;5015153;28;20437;-68
2024/01/02 12:13:52;;;;;;;2.10;1.20;;;10.60;99.90;;;;;;5009546;28;20473;-68
2024/01/02 12:16:19;;;;;;;2.10;1.10;;;10.60;99.90;;;;;;5008745;28;20427;-67
2024/01/02 12:18:48;;;;;;;1.87;1.00;;;10.60;99.90;;;;;;5018159;28;20532;-70
2024/01/02 12:21:18;;;;;;;1.93;1.03;;;10.60;99.90;;;;;;5015892;28;20431;-69
2024/01/02 12:23:49;;;;;;;1.90;1.00;;;10.60;99.90;;;;;;5016230;28;20451;-69
2024/01/02 12:26:19;;;;;;;1.97;1.03;;;10.60;99.90;;;;;;5008641;28;20451;-69
2024/01/02 12:28:45;;;;;;;2.30;1.37;;;10.60;99.90;;;;;;5013748;28;20511;-69
2024/01/02 12:31:25;;;;;;;1.80;1.00;;;10.60;99.90;;;;;;5010429;28;20865;-69
2024/01/02 12:34:14;;;;;;;2.10;1.10;;;10.60;99.90;;;;;;5022047;28;20481;-69
2024/01/02 12:36:46;;;;;;;2.20;1.10;;;10.60;99.90;;;;;;5017073;28;20493;-69
2024/01/02 12:39:16;;;;;;;1.80;1.00;;;10.60;99.90;;;;;;5007624;28;20439;-69
2024/01/02 12:41:51;;;;;;;2.20;1.13;;;10.60;99.90;;;;;;5014145;28;20466;-69
2024/01/02 12:44:18;;;;;;;3.27;1.20;;;10.70;99.90;;;;;;5008279;28;20459;-68
2024/01/02 12:47:08;;;;;;;2.70;1.30;;;10.60;99.90;;;;;;5013646;28;20558;-68
2024/01/02 12:49:43;;;;;;;2.00;1.00;;;10.70;99.90;;;;;;5014538;28;20443;-68
2024/01/02 12:52:16;;;;;;;4.33;1.20;;;10.60;99.90;;;;;;5012439;28;20430;-68
2024/01/02 12:54:47;;;;;;;5.40;1.30;;;10.60;99.90;;;;;;5017228;28;20452;-68
2024/01/02 12:57:14;;;;;;;3.60;1.10;;;10.60;99.90;;;;;;5013506;28;20444;-68
2024/01/02 12:59:41;;;;;;;2.00;1.10;;;10.50;99.90;;;;;;5026113;28;20457;-68
2024/01/02 13:02:07;;;;;;;2.10;1.20;;;10.60;99.90;;;;;;5017052;28;20497;-68